»·PEaware :: UAL293 MMMX-KLAX

UAL293 :: MMMX-KLAX

FLIGHT INFORMATION

Flight Status: Arrived
Operator:
United Airlines
More flights by this operator :: More flights under this callsign
Pilot: Clay B. (17061)
Aircraft: BOEING 737-900
(B739)
More flights by this aircraft type
Origin: MMMX Lic Benito Juarez Intl
Mexico
Destination: KLAX Los Angeles Intl
United States
More flights between these airports :: More routes between these airports
Route: PTJ5B PTJ J13 ZCL UT10 PPE J93 JLI VISTA3
File this flight plan on PilotEdge
Remarks: PBN / A1B1C1D1S1S2 DOF / 180626 REG / N45440 EET / MMZT0046 KZLA0238 OPR / UAL PER / D RMK / TCAS SIMBRIEF
Altitude:
(Current/Filed)
34,000ft
Speed:
(Current/Filed)
469kts
Departed: 25-Jun-18 06:01 PM
Arrived: 25-Jun-18 09:19 PM
Distance/Time
Traveled:
1349nm/3:18
Distance/Time
To Go:
Arrived

Flight Plot

Page will automatically refresh every two minutes.

Flight plan parsing failed; only flown route is shown


Map Options




Map Legend


Flown Route
Filed Route
Departure Airport
Arrival Airport
Navaid (VOR, NDB)
Fix

Horizontal Profiles

Position Reports

Time Latitude Longitude Heading Altitude Ground
Speed
25-Jun-18 17:53 19.438682 -99.073064 59 7337ft 9kts
25-Jun-18 17:54 19.440743 -99.069390 59 7340ft 12kts
25-Jun-18 17:55 19.442744 -99.065870 59 7332ft 20kts
25-Jun-18 17:56 19.443657 -99.061348 117 7328ft 0kts
25-Jun-18 17:57 19.443271 -99.060167 102 7327ft 12kts
25-Jun-18 17:58 19.443787 -99.058303 137 7330ft 8kts
25-Jun-18 17:59 19.443568 -99.058211 170 7331ft 0kts
25-Jun-18 18:00 19.442506 -99.058301 227 7329ft 0kts
25-Jun-18 18:01 19.437735 -99.066678 238 7330ft 115kts
25-Jun-18 18:02 19.418516 -99.110949 231 8675ft 180kts
25-Jun-18 18:03 19.381260 -99.153578 246 10442ft 220kts
25-Jun-18 18:04 19.424471 -99.193585 7 11864ft 302kts
25-Jun-18 18:05 19.511495 -99.212060 341 13604ft 349kts
25-Jun-18 18:06 19.598081 -99.254662 298 16194ft 352kts
25-Jun-18 18:07 19.581533 -99.350937 253 18440ft 360kts
25-Jun-18 18:08 19.592581 -99.457384 278 20729ft 372kts
25-Jun-18 18:09 19.609840 -99.566719 279 22922ft 381kts
25-Jun-18 18:10 19.627533 -99.678745 278 24740ft 395kts
25-Jun-18 18:11 19.649234 -99.794187 294 26465ft 407kts
25-Jun-18 18:12 19.719892 -99.889694 310 28043ft 418kts
25-Jun-18 18:13 19.796294 -99.983592 310 29469ft 426kts
25-Jun-18 18:14 19.873147 -100.078334 309 31087ft 423kts
25-Jun-18 18:15 19.949466 -100.172757 309 32479ft 420kts
25-Jun-18 18:16 20.025019 -100.266464 309 33715ft 417kts
25-Jun-18 18:17 20.100518 -100.360306 309 34299ft 427kts
25-Jun-18 18:18 20.178758 -100.457595 309 34295ft 446kts
25-Jun-18 18:19 20.259972 -100.558530 309 34293ft 454kts
25-Jun-18 18:20 20.342067 -100.660637 309 34288ft 456kts
25-Jun-18 18:21 20.423915 -100.762340 309 34294ft 456kts
25-Jun-18 18:22 20.506051 -100.864364 309 34284ft 456kts
25-Jun-18 18:23 20.588658 -100.966939 309 34294ft 455kts
25-Jun-18 18:24 20.670525 -101.069623 309 34292ft 457kts
25-Jun-18 18:25 20.752678 -101.172995 309 34291ft 457kts
25-Jun-18 18:26 20.834534 -101.276090 309 34291ft 457kts
25-Jun-18 18:27 20.916858 -101.379830 309 34292ft 457kts
25-Jun-18 18:28 20.998680 -101.482924 310 34292ft 455kts
25-Jun-18 18:29 21.083766 -101.582697 311 34292ft 456kts
25-Jun-18 18:30 21.166859 -101.679577 311 34290ft 456kts
25-Jun-18 18:31 21.252138 -101.779077 311 34291ft 455kts
25-Jun-18 18:32 21.337658 -101.879069 311 34291ft 456kts
25-Jun-18 18:33 21.422927 -101.978971 311 34292ft 455kts
25-Jun-18 18:34 21.508344 -102.079257 311 34264ft 456kts
25-Jun-18 18:35 21.593529 -102.179422 311 34263ft 456kts
25-Jun-18 18:36 21.678922 -102.279897 311 34264ft 456kts
25-Jun-18 18:37 21.788848 -102.343277 342 34263ft 459kts
25-Jun-18 18:38 21.911061 -102.381925 343 34264ft 459kts
25-Jun-18 18:39 22.033354 -102.420586 343 34266ft 459kts
25-Jun-18 18:40 22.154804 -102.459007 343 34262ft 459kts
25-Jun-18 18:41 22.276933 -102.497782 343 34315ft 459kts
25-Jun-18 18:42 22.399396 -102.536799 342 34316ft 459kts
25-Jun-18 18:43 22.521498 -102.575756 343 34320ft 463kts
25-Jun-18 18:44 22.645177 -102.615282 343 34319ft 464kts
25-Jun-18 18:45 22.767956 -102.654539 343 34318ft 464kts
25-Jun-18 18:46 22.889449 -102.698394 328 34324ft 464kts
25-Jun-18 18:47 22.981801 -102.795096 312 34321ft 464kts
25-Jun-18 18:48 23.070804 -102.896148 313 34322ft 464kts
25-Jun-18 18:49 23.159665 -102.996120 313 34312ft 463kts
25-Jun-18 18:50 23.249096 -103.096757 313 34316ft 464kts
25-Jun-18 18:51 23.338580 -103.198259 313 34316ft 464kts
25-Jun-18 18:52 23.427335 -103.299369 313 34318ft 464kts
25-Jun-18 18:53 23.516495 -103.401071 313 34318ft 464kts
25-Jun-18 18:54 23.605537 -103.502632 313 34318ft 465kts
25-Jun-18 18:55 23.694602 -103.604156 313 34133ft 464kts
25-Jun-18 18:56 23.783105 -103.704981 313 34128ft 466kts
25-Jun-18 18:57 23.872898 -103.807202 313 34128ft 466kts
25-Jun-18 18:58 23.962592 -103.909250 313 34129ft 466kts
25-Jun-18 18:59 24.052302 -104.011272 313 34131ft 467kts
25-Jun-18 19:00 24.141170 -104.112274 313 34129ft 466kts
25-Jun-18 19:01 24.230727 -104.214064 313 34130ft 466kts
25-Jun-18 19:02 24.320874 -104.316317 314 34129ft 467kts
25-Jun-18 19:03 24.410279 -104.419052 313 34130ft 467kts
25-Jun-18 19:04 24.498994 -104.522785 313 34131ft 466kts
25-Jun-18 19:05 24.587227 -104.626565 313 34131ft 467kts
25-Jun-18 19:06 24.674588 -104.729356 312 34128ft 467kts
25-Jun-18 19:07 24.763068 -104.833463 313 34126ft 467kts
25-Jun-18 19:08 24.851309 -104.937248 312 34239ft 466kts
25-Jun-18 19:09 24.939701 -105.041124 313 34238ft 466kts
25-Jun-18 19:10 25.028302 -105.145214 313 34240ft 466kts
25-Jun-18 19:11 25.116061 -105.248204 313 34237ft 466kts
25-Jun-18 19:12 25.204620 -105.352094 313 34237ft 466kts
25-Jun-18 19:13 25.293510 -105.456296 313 34236ft 466kts
25-Jun-18 19:14 25.382207 -105.560196 313 34238ft 466kts
25-Jun-18 19:15 25.470035 -105.663012 313 34236ft 466kts
25-Jun-18 19:16 25.558411 -105.766396 313 34237ft 465kts
25-Jun-18 19:17 25.647293 -105.870282 313 33956ft 466kts
25-Jun-18 19:18 25.735030 -105.974992 312 33941ft 461kts
25-Jun-18 19:19 25.821946 -106.079555 312 33939ft 461kts
25-Jun-18 19:20 25.908417 -106.183810 312 33941ft 461kts
25-Jun-18 19:21 25.995369 -106.288658 312 33940ft 461kts
25-Jun-18 19:22 26.081977 -106.393075 312 33941ft 461kts
25-Jun-18 19:23 26.167616 -106.496234 312 33940ft 461kts
25-Jun-18 19:24 26.254909 -106.601365 312 33939ft 465kts
25-Jun-18 19:25 26.341468 -106.705484 312 33940ft 465kts
25-Jun-18 19:26 26.429479 -106.811300 312 33939ft 465kts
25-Jun-18 19:27 26.516702 -106.917358 311 33939ft 465kts
25-Jun-18 19:28 26.603550 -107.024158 311 33940ft 465kts
25-Jun-18 19:29 26.690022 -107.130783 311 33939ft 465kts
25-Jun-18 19:30 26.762527 -107.220248 311 33941ft 465kts
25-Jun-18 19:31 26.863196 -107.344444 312 33939ft 465kts
25-Jun-18 19:32 26.950125 -107.451587 312 33837ft 465kts
25-Jun-18 19:33 27.036938 -107.558537 312 33835ft 465kts
25-Jun-18 19:34 27.122357 -107.663728 311 33830ft 465kts
25-Jun-18 19:35 27.194377 -107.752380 313 33830ft 463kts
25-Jun-18 19:36 27.280402 -107.859632 312 33832ft 463kts
25-Jun-18 19:37 27.366127 -107.967318 312 33831ft 463kts
25-Jun-18 19:38 27.451880 -108.075248 312 33831ft 463kts
25-Jun-18 19:39 27.537891 -108.183526 312 33832ft 464kts
25-Jun-18 19:40 27.623640 -108.291468 312 33832ft 463kts
25-Jun-18 19:41 27.709575 -108.399553 312 33833ft 463kts
25-Jun-18 19:42 27.795483 -108.507564 312 33833ft 463kts
25-Jun-18 19:43 27.881370 -108.616014 312 33833ft 463kts
25-Jun-18 19:44 27.965101 -108.722942 312 33832ft 463kts
25-Jun-18 19:45 28.050387 -108.832100 312 33831ft 463kts
25-Jun-18 19:46 28.134626 -108.940003 312 33830ft 463kts
25-Jun-18 19:47 28.219748 -109.049001 312 33832ft 463kts
25-Jun-18 19:48 28.304904 -109.157997 312 33832ft 463kts
25-Jun-18 19:49 28.390426 -109.267667 312 33833ft 463kts
25-Jun-18 19:50 28.475019 -109.377767 312 33832ft 463kts
25-Jun-18 19:51 28.558982 -109.487873 311 33833ft 463kts
25-Jun-18 19:52 28.643260 -109.598629 312 33832ft 463kts
25-Jun-18 19:53 28.726703 -109.708247 311 33938ft 462kts
25-Jun-18 19:54 28.810795 -109.818652 311 33940ft 462kts
25-Jun-18 19:55 28.895005 -109.929135 311 33939ft 462kts
25-Jun-18 19:56 28.978906 -110.039101 312 33939ft 462kts
25-Jun-18 19:57 29.063247 -110.149549 312 33938ft 461kts
25-Jun-18 19:58 29.146945 -110.259047 312 33941ft 461kts
25-Jun-18 19:59 29.231106 -110.369090 312 33941ft 461kts
25-Jun-18 20:00 29.315408 -110.479199 312 33942ft 461kts
25-Jun-18 20:01 29.399521 -110.589455 311 33941ft 461kts
25-Jun-18 20:02 29.481805 -110.701449 310 33939ft 461kts
25-Jun-18 20:03 29.563171 -110.814434 310 33938ft 460kts
25-Jun-18 20:04 29.644407 -110.927567 310 33939ft 460kts
25-Jun-18 20:05 29.725810 -111.040830 310 33940ft 460kts
25-Jun-18 20:06 29.807163 -111.153920 310 33940ft 460kts
25-Jun-18 20:07 29.888706 -111.267156 310 33940ft 459kts
25-Jun-18 20:08 29.970004 -111.379941 311 33941ft 459kts
25-Jun-18 20:09 30.051603 -111.493013 311 33939ft 459kts
25-Jun-18 20:10 30.132563 -111.605079 311 33941ft 458kts
25-Jun-18 20:11 30.213924 -111.717567 310 33940ft 458kts
25-Jun-18 20:12 30.295606 -111.830382 311 33939ft 458kts
25-Jun-18 20:13 30.377380 -111.943212 311 33940ft 458kts
25-Jun-18 20:14 30.459226 -112.056031 311 33940ft 458kts
25-Jun-18 20:15 30.541219 -112.168921 311 33940ft 458kts
25-Jun-18 20:16 30.623178 -112.281651 311 33938ft 458kts
25-Jun-18 20:17 30.705256 -112.394427 311 33941ft 458kts
25-Jun-18 20:18 30.787049 -112.506687 311 33914ft 456kts
25-Jun-18 20:19 30.868951 -112.618983 311 33914ft 456kts
25-Jun-18 20:20 30.950810 -112.731097 311 33912ft 456kts
25-Jun-18 20:21 31.032881 -112.843389 311 33910ft 455kts
25-Jun-18 20:22 31.113257 -112.953243 311 33914ft 449kts
25-Jun-18 20:23 31.193541 -113.062865 310 33914ft 445kts
25-Jun-18 20:24 31.273929 -113.172576 310 33913ft 445kts
25-Jun-18 20:25 31.354214 -113.282048 310 33912ft 445kts
25-Jun-18 20:26 31.424893 -113.400291 302 33914ft 445kts
25-Jun-18 20:27 31.491116 -113.522737 302 33911ft 445kts
25-Jun-18 20:28 31.557591 -113.644816 303 33913ft 445kts
25-Jun-18 20:29 31.624102 -113.766651 302 33913ft 445kts
25-Jun-18 20:30 31.690938 -113.888897 302 33912ft 445kts
25-Jun-18 20:31 31.757641 -114.010790 302 33912ft 445kts
25-Jun-18 20:32 31.824717 -114.132954 303 33805ft 445kts
25-Jun-18 20:33 31.891987 -114.255358 303 33804ft 446kts
25-Jun-18 20:34 31.959166 -114.377413 303 33804ft 446kts
25-Jun-18 20:35 32.026598 -114.499735 303 33803ft 446kts
25-Jun-18 20:36 32.094341 -114.622444 303 32908ft 449kts
25-Jun-18 20:37 32.157024 -114.735801 303 31998ft 449kts
25-Jun-18 20:38 32.224611 -114.857911 303 31806ft 445kts
25-Jun-18 20:39 32.292432 -114.980285 303 31805ft 445kts
25-Jun-18 20:40 32.359838 -115.102786 302 31804ft 445kts
25-Jun-18 20:41 32.425749 -115.226129 302 31779ft 445kts
25-Jun-18 20:42 32.491955 -115.350307 302 31781ft 447kts
25-Jun-18 20:43 32.557859 -115.473861 302 31777ft 445kts
25-Jun-18 20:44 32.623447 -115.596722 302 31777ft 446kts
25-Jun-18 20:45 32.686405 -115.715328 302 30869ft 439kts
25-Jun-18 20:46 32.750680 -115.837489 302 29766ft 432kts
25-Jun-18 20:47 32.813649 -115.957157 302 28673ft 425kts
25-Jun-18 20:48 32.875190 -116.074847 302 27674ft 420kts
25-Jun-18 20:49 32.933836 -116.187370 301 26705ft 414kts
25-Jun-18 20:50 32.992356 -116.299813 301 25724ft 405kts
25-Jun-18 20:51 33.050791 -116.412040 302 24727ft 402kts
25-Jun-18 20:52 33.107198 -116.520260 302 24001ft 392kts
25-Jun-18 20:53 33.150668 -116.636553 277 22494ft 384kts
25-Jun-18 20:54 33.163970 -116.761342 277 20793ft 375kts
25-Jun-18 20:55 33.178075 -116.882236 277 19278ft 367kts
25-Jun-18 20:56 33.192221 -117.001766 277 17773ft 359kts
25-Jun-18 20:57 33.205131 -117.110732 277 16368ft 351kts
25-Jun-18 20:58 33.218551 -117.224585 277 14865ft 343kts
25-Jun-18 20:59 33.231611 -117.335839 277 13985ft 339kts
25-Jun-18 21:00 33.243648 -117.447575 273 13983ft 339kts
25-Jun-18 21:01 33.249867 -117.559906 273 13577ft 337kts
25-Jun-18 21:02 33.256116 -117.670802 272 12569ft 332kts
25-Jun-18 21:03 33.272602 -117.777140 304 11563ft 330kts
25-Jun-18 21:04 33.347979 -117.831130 335 10578ft 307kts
25-Jun-18 21:05 33.421465 -117.868702 335 9687ft 279kts
25-Jun-18 21:06 33.492364 -117.905025 335 8949ft 276kts
25-Jun-18 21:07 33.562235 -117.940905 335 8236ft 273kts
25-Jun-18 21:08 33.631424 -117.976477 336 7533ft 269kts
25-Jun-18 21:09 33.699102 -118.011312 335 6991ft 264kts
25-Jun-18 21:10 33.765768 -118.045707 335 6983ft 263kts
25-Jun-18 21:11 33.834771 -118.060756 1 6974ft 246kts
25-Jun-18 21:12 33.905226 -118.056381 1 5327ft 260kts
25-Jun-18 21:13 33.970953 -118.068753 310 3586ft 226kts
25-Jun-18 21:14 33.970667 -118.138111 250 3584ft 218kts
25-Jun-18 21:15 33.955455 -118.206235 263 3014ft 214kts
25-Jun-18 21:16 33.948561 -118.272912 263 1935ft 186kts
25-Jun-18 21:17 33.943070 -118.327221 262 1130ft 148kts
25-Jun-18 21:18 33.937922 -118.376548 263 282ft 145kts
25-Jun-18 21:19 33.935528 -118.405099 279 113ft 10kts
25-Jun-18 21:20 33.935949 -118.407185 266 113ft 10kts
25-Jun-18 21:21 33.937660 -118.408996 27 113ft 9kts
25-Jun-18 21:22 33.938208 -118.405605 82 113ft 12kts
25-Jun-18 21:23 33.938667 -118.401029 82 113ft 12kts
25-Jun-18 21:24 33.941035 -118.400759 352 113ft 3kts
25-Jun-18 21:25 33.939392 -118.402097 255 113ft 17kts
25-Jun-18 21:26 33.939897 -118.403736 308 113ft 0kts
25-Jun-18 21:27 33.939897 -118.403736 308 113ft 0kts
25-Jun-18 21:28 33.939897 -118.403736 308 113ft 0kts
25-Jun-18 21:29 33.939897 -118.403736 308 113ft 0kts
25-Jun-18 21:30 33.939897 -118.403736 308 113ft 0kts
25-Jun-18 21:31 33.939897 -118.403736 308 113ft 0kts
25-Jun-18 21:32 33.939897 -118.403736 308 113ft 0kts
25-Jun-18 21:33 33.939897 -118.403736 308 113ft 0kts

Navigation Log

Ident Type
Flight plan parsing failed, navigation log unavailable